Time;durP1;ratioP1;P1;durP2;ratioP2;P2;SDS_P1;SDS_P2;PMS_P1;PMS_P2;Temp;Humidity;BMP_temperature;BMP_pressure;BME280_temperature;BME280_humidity;BME280_pressure;Samples;Min_cycle;Max_cycle;Signal;HPM_P1;HPM_P2
2022/06/12 00:00:13;;;;;;;16.45;13.40;;;21.40;90.00;;;;;;5134143;27;20054;-56
2022/06/12 00:02:59;;;;;;;15.73;12.52;;;21.30;89.90;;;;;;5132994;27;20100;-56
2022/06/12 00:05:47;;;;;;;20.95;14.80;;;21.20;89.10;;;;;;5131255;27;20042;-56
2022/06/12 00:08:34;;;;;;;21.70;16.45;;;21.10;88.20;;;;;;5113233;28;20081;-55
2022/06/12 00:11:19;;;;;;;12.55;11.05;;;21.10;88.20;;;;;;5108406;28;20368;-54
2022/06/12 00:14:05;;;;;;;13.27;11.00;;;21.10;89.00;;;;;;5092464;28;20043;-53
2022/06/12 00:16:52;;;;;;;15.48;11.70;;;21.20;89.10;;;;;;5099375;28;20042;-52
2022/06/12 00:19:40;;;;;;;15.27;11.50;;;21.20;89.20;;;;;;5095714;28;20054;-56
2022/06/12 00:22:25;;;;;;;11.82;10.63;;;21.20;89.00;;;;;;5083112;28;20078;-52
2022/06/12 00:25:12;;;;;;;11.55;9.98;;;21.30;88.90;;;;;;5093450;28;20101;-53
2022/06/12 00:27:57;;;;;;;12.65;11.45;;;21.30;88.80;;;;;;5112530;28;20038;-52
2022/06/12 00:30:41;;;;;;;;;;;21.30;88.70;;;;;;5125448;28;20085;-54
2022/06/12 00:33:25;;;;;;;16.13;12.95;;;21.30;88.60;;;;;;5111544;28;19969;-53
2022/06/12 00:36:10;;;;;;;13.48;10.80;;;21.30;88.40;;;;;;5111843;28;20061;-53
2022/06/12 00:38:54;;;;;;;12.88;11.13;;;21.30;88.20;;;;;;5114115;28;20132;-53
2022/06/12 00:41:40;;;;;;;11.82;10.63;;;21.30;88.70;;;;;;5102449;28;20162;-52
2022/06/12 00:44:39;;;;;;;14.77;11.68;;;21.20;89.10;;;;;;5118679;27;20038;-54
2022/06/12 00:47:24;;;;;;;14.23;11.60;;;21.20;89.70;;;;;;5115528;28;20442;-57
2022/06/12 00:50:09;;;;;;;13.63;10.75;;;21.20;89.80;;;;;;5116039;28;20038;-51
2022/06/12 00:52:54;;;;;;;;;;;21.20;89.80;;;;;;5101187;28;20073;-52
2022/06/12 00:55:50;;;;;;;14.52;11.32;;;21.10;89.90;;;;;;5095808;28;19922;-51
2022/06/12 00:58:39;;;;;;;15.18;13.57;;;21.10;90.10;;;;;;5099154;28;20031;-55
2022/06/12 01:01:32;;;;;;;15.60;13.82;;;21.10;90.00;;;;;;5109906;28;20035;-53
2022/06/12 01:07:28;;;;;;;14.80;12.25;;;21.00;90.30;;;;;;5115382;28;20402;-55
2022/06/12 01:10:15;;;;;;;12.02;10.52;;;21.00;90.50;;;;;;5100506;28;20502;-54
2022/06/12 01:13:11;;;;;;;14.45;11.57;;;20.90;90.90;;;;;;5080484;28;20549;-50
2022/06/12 01:16:01;;;;;;;12.45;11.13;;;20.80;91.20;;;;;;5114914;28;20085;-50
2022/06/12 01:18:49;;;;;;;15.32;13.18;;;20.80;91.40;;;;;;5113285;28;20166;-53
2022/06/12 01:21:51;;;;;;;16.17;13.07;;;20.70;91.70;;;;;;5115395;28;20150;-51
2022/06/12 01:25:06;;;;;;;17.98;13.07;;;20.50;92.10;;;;;;5079671;28;20557;-51
2022/06/12 01:28:07;;;;;;;12.57;10.90;;;20.40;92.50;;;;;;5107266;28;20085;-51
2022/06/12 01:31:25;;;;;;;13.60;11.70;;;20.40;92.10;;;;;;5114547;28;20177;-56
2022/06/12 01:34:31;;;;;;;19.88;15.23;;;20.30;92.50;;;;;;5114472;28;20131;-54
2022/06/12 01:37:38;;;;;;;17.88;15.98;;;20.10;93.00;;;;;;5114648;28;20027;-53
2022/06/12 01:40:30;;;;;;;21.10;17.13;;;20.10;93.20;;;;;;5095090;28;20039;-56
2022/06/12 01:43:39;;;;;;;17.23;13.65;;;20.00;93.50;;;;;;5106179;27;20030;-52
2022/06/12 01:46:47;;;;;;;15.00;11.25;;;20.00;93.70;;;;;;5114515;28;20030;-52
2022/06/12 01:49:54;;;;;;;14.05;10.73;;;19.90;93.80;;;;;;5113076;28;20054;-52
2022/06/12 01:53:16;;;;;;;13.98;10.88;;;19.90;94.00;;;;;;5097785;28;20111;-56
2022/06/12 01:56:15;;;;;;;14.85;10.55;;;19.80;94.10;;;;;;5097463;28;20027;-52
2022/06/12 01:59:19;;;;;;;11.40;10.15;;;19.90;93.70;;;;;;5098929;28;20035;-52
2022/06/12 02:02:25;;;;;;;12.98;10.18;;;19.90;93.30;;;;;;5102949;28;20039;-56
2022/06/12 02:05:28;;;;;;;11.23;9.00;;;20.00;93.40;;;;;;5093965;28;20027;-53
2022/06/12 02:08:27;;;;;;;10.90;9.13;;;20.00;92.90;;;;;;5094491;28;20119;-52
2022/06/12 02:14:39;;;;;;;11.15;9.50;;;20.00;92.80;;;;;;5094567;28;20490;-53
2022/06/12 02:17:35;;;;;;;11.20;9.55;;;19.70;93.60;;;;;;5094567;28;20594;-54
2022/06/12 02:20:24;;;;;;;11.82;9.30;;;19.80;93.30;;;;;;5094081;28;20027;-52
2022/06/12 02:23:21;;;;;;;11.38;9.20;;;19.70;93.90;;;;;;5111862;28;20126;-55
2022/06/12 02:26:06;;;;;;;13.50;10.68;;;19.40;94.00;;;;;;5091861;28;20039;-54
2022/06/12 02:28:57;;;;;;;12.43;9.38;;;19.10;95.00;;;;;;5110302;28;20472;-54
2022/06/12 02:31:46;;;;;;;10.70;9.27;;;19.20;95.30;;;;;;5097998;28;20034;-53
2022/06/12 02:34:36;;;;;;;15.60;9.50;;;19.40;95.20;;;;;;5114228;28;20073;-56
2022/06/12 02:37:26;;;;;;;10.02;8.80;;;19.40;95.20;;;;;;5104364;28;20082;-53
2022/06/12 02:40:18;;;;;;;9.05;7.88;;;19.40;95.20;;;;;;5094185;28;20058;-54
2022/06/12 02:43:08;;;;;;;11.63;8.48;;;19.40;95.30;;;;;;5093447;27;20030;-54
2022/06/12 02:46:23;;;;;;;10.95;7.28;;;19.50;95.10;;;;;;5130929;27;20062;-52
2022/06/12 02:49:09;;;;;;;8.90;7.97;;;19.70;94.80;;;;;;5114331;28;20027;-54
2022/06/12 02:52:04;;;;;;;9.60;7.43;;;19.80;94.70;;;;;;5098893;28;20514;-54
2022/06/12 02:55:10;;;;;;;8.27;7.32;;;19.80;94.40;;;;;;5103950;28;20070;-51
2022/06/12 02:58:03;;;;;;;9.43;7.38;;;19.90;94.30;;;;;;5093381;28;20434;-52
2022/06/12 03:01:00;;;;;;;8.77;7.25;;;19.90;94.30;;;;;;5111669;28;20034;-54
2022/06/12 03:03:52;;;;;;;8.32;7.00;;;20.00;94.20;;;;;;5115354;28;20080;-52
2022/06/12 03:06:38;;;;;;;8.35;7.20;;;20.00;94.00;;;;;;5092811;28;20115;-56
2022/06/12 03:09:22;;;;;;;10.90;7.53;;;20.10;94.00;;;;;;5093863;28;20038;-57
2022/06/12 03:12:07;;;;;;;7.80;7.00;;;20.10;94.00;;;;;;5093844;28;20148;-55
2022/06/12 03:14:52;;;;;;;8.27;7.38;;;20.10;94.00;;;;;;5113697;28;20051;-52
2022/06/12 03:17:36;;;;;;;7.28;6.57;;;20.20;94.10;;;;;;5100666;28;20174;-54
2022/06/12 03:20:23;;;;;;;10.10;7.95;;;20.20;94.10;;;;;;5077821;28;20086;-54
2022/06/12 03:23:21;;;;;;;8.82;7.43;;;20.30;94.20;;;;;;5108730;28;20030;-54
2022/06/12 03:26:10;;;;;;;10.05;7.93;;;20.40;94.40;;;;;;5106474;28;20097;-51
2022/06/12 03:29:22;;;;;;;9.50;7.43;;;20.40;94.60;;;;;;5110779;28;20042;-53
2022/06/12 03:32:41;;;;;;;7.93;7.13;;;20.40;94.80;;;;;;5112154;28;20069;-52
2022/06/12 03:35:52;;;;;;;8.43;7.60;;;20.50;94.70;;;;;;5113775;28;20666;-52
2022/06/12 03:39:00;;;;;;;35.05;26.42;;;20.50;94.80;;;;;;5078328;28;20375;-56
2022/06/12 03:42:18;;;;;;;13.50;10.27;;;20.40;94.80;;;;;;5102519;28;20027;-53
2022/06/12 03:45:09;;;;;;;10.02;7.85;;;19.50;96.30;;;;;;5105613;28;20039;-53
2022/06/12 03:48:03;;;;;;;8.05;7.25;;;18.50;97.50;;;;;;5112777;28;20058;-54
2022/06/12 03:51:03;;;;;;;10.45;7.85;;;18.30;98.50;;;;;;5092962;28;20047;-52
2022/06/12 03:54:02;;;;;;;7.88;7.05;;;18.40;98.20;;;;;;5093772;28;20126;-54
2022/06/12 04:00:16;;;;;;;10.65;7.20;;;18.70;97.70;;;;;;5092410;28;20103;-53
2022/06/12 04:03:03;;;;;;;7.82;7.05;;;18.80;97.50;;;;;;5102485;28;20387;-56
2022/06/12 04:05:59;;;;;;;11.20;7.80;;;18.80;97.50;;;;;;5112464;28;20027;-51
2022/06/12 04:09:05;;;;;;;6.97;6.28;;;18.90;97.50;;;;;;5096314;28;20392;-56
2022/06/12 04:11:57;;;;;;;7.95;6.57;;;19.10;97.40;;;;;;5100254;28;20030;-50
2022/06/12 04:14:47;;;;;;;7.57;6.00;;;19.10;97.40;;;;;;5112078;28;20023;-52
2022/06/12 04:17:32;;;;;;;7.97;6.10;;;19.20;97.10;;;;;;5097826;28;20570;-54
2022/06/12 04:20:46;;;;;;;9.63;6.25;;;19.40;97.00;;;;;;5091285;28;20406;-52
2022/06/12 04:23:33;;;;;;;9.38;6.25;;;19.40;97.10;;;;;;5092206;28;20091;-52
2022/06/12 04:26:39;;;;;;;6.63;5.88;;;19.50;97.00;;;;;;5096608;28;20042;-51
2022/06/12 04:29:30;;;;;;;8.75;6.90;;;19.70;96.60;;;;;;5102122;28;20089;-53
2022/06/12 04:32:14;;;;;;;8.90;5.93;;;19.80;96.60;;;;;;5095580;28;20121;-54
2022/06/12 04:34:59;;;;;;;6.50;5.82;;;19.90;96.50;;;;;;5115115;27;20046;-50
2022/06/12 04:37:43;;;;;;;6.13;5.50;;;20.10;96.30;;;;;;5110426;28;20082;-54
2022/06/12 04:40:28;;;;;;;6.28;5.53;;;20.10;96.10;;;;;;5111932;28;20035;-54
2022/06/12 04:43:12;;;;;;;6.53;5.82;;;20.20;96.00;;;;;;5094924;28;20096;-55
2022/06/12 04:45:57;;;;;;;;;;;20.20;95.80;;;;;;5130432;28;20057;-52
2022/06/12 04:48:44;;;;;;;7.50;5.85;;;20.30;95.80;;;;;;5112216;28;19915;-53
2022/06/12 04:51:30;;;;;;;8.93;6.78;;;20.30;95.70;;;;;;5091659;28;20606;-56
2022/06/12 04:54:16;;;;;;;6.82;6.13;;;20.40;95.60;;;;;;5091852;28;20039;-55
2022/06/12 04:57:01;;;;;;;10.23;6.75;;;20.40;95.90;;;;;;5095211;28;20085;-50
2022/06/12 04:59:47;;;;;;;8.70;6.43;;;20.40;95.80;;;;;;5111786;28;20054;-57
2022/06/12 05:02:32;;;;;;;8.55;7.47;;;20.10;96.90;;;;;;5120305;28;20090;-53
2022/06/12 05:05:16;;;;;;;10.43;7.22;;;19.80;97.00;;;;;;5116574;28;20092;-56
2022/06/12 05:08:00;;;;;;;8.52;6.15;;;19.90;97.00;;;;;;5096545;28;20043;-54
2022/06/12 05:10:46;;;;;;;7.90;6.28;;;19.80;97.10;;;;;;5111165;28;20051;-53
2022/06/12 05:13:30;;;;;;;6.65;5.95;;;19.80;97.20;;;;;;5096648;28;20094;-52
2022/06/12 05:16:47;;;;;;;8.98;6.13;;;19.90;97.30;;;;;;5102952;28;20036;-55
2022/06/12 05:19:35;;;;;;;6.70;6.05;;;19.90;97.50;;;;;;5091351;28;20079;-50
2022/06/12 05:22:22;;;;;;;7.40;5.72;;;19.70;98.10;;;;;;5107742;28;20081;-54
2022/06/12 05:25:07;;;;;;;6.68;5.57;;;19.60;98.20;;;;;;5098217;28;20085;-53
2022/06/12 05:27:52;;;;;;;9.63;5.50;;;19.50;98.50;;;;;;5112719;28;20038;-53
2022/06/12 05:30:37;;;;;;;7.55;5.55;;;19.60;98.60;;;;;;5114861;28;20113;-52
2022/06/12 05:33:22;;;;;;;6.85;5.50;;;19.50;98.50;;;;;;5114895;28;20046;-55
2022/06/12 05:36:06;;;;;;;5.55;4.88;;;19.40;98.80;;;;;;5109890;28;20046;-55
2022/06/12 05:38:50;;;;;;;;;;;19.60;98.30;;;;;;5101854;27;20042;-57
2022/06/12 05:41:35;;;;;;;7.35;5.20;;;19.80;97.70;;;;;;5129385;27;19956;-57
2022/06/12 05:44:20;;;;;;;;;;;19.90;97.30;;;;;;5135330;27;20551;-53
2022/06/12 05:47:05;;;;;;;5.50;4.93;;;19.90;97.30;;;;;;5107201;28;19915;-54
2022/06/12 05:49:49;;;;;;;5.60;4.97;;;20.00;96.90;;;;;;5114378;28;20099;-54
2022/06/12 05:52:34;;;;;;;11.60;5.60;;;19.90;96.70;;;;;;5099075;28;20039;-55
2022/06/12 05:55:18;;;;;;;6.35;5.35;;;19.90;96.70;;;;;;5094504;28;20122;-52
2022/06/12 05:58:02;;;;;;;;;;;19.90;96.90;;;;;;5112033;28;20039;-54
2022/06/12 06:00:48;;;;;;;5.63;4.93;;;20.10;96.80;;;;;;5112628;28;19943;-52
2022/06/12 06:03:33;;;;;;;6.53;5.20;;;20.20;96.60;;;;;;5121131;27;20378;-51
2022/06/12 06:06:23;;;;;;;6.60;5.72;;;20.10;96.90;;;;;;5112735;28;20038;-54
2022/06/12 06:09:08;;;;;;;6.90;5.43;;;20.20;96.80;;;;;;5112582;28;20085;-54
2022/06/12 06:11:52;;;;;;;8.38;5.93;;;20.30;96.80;;;;;;5113789;27;20093;-53
2022/06/12 06:14:37;;;;;;;7.07;6.28;;;20.30;96.20;;;;;;5121124;27;20050;-51
2022/06/12 06:17:21;;;;;;;7.55;6.32;;;20.20;96.20;;;;;;5116701;27;20042;-51
2022/06/12 06:20:08;;;;;;;8.32;6.30;;;20.20;95.90;;;;;;5121663;27;20035;-51
2022/06/12 06:22:53;;;;;;;7.90;6.00;;;20.20;96.30;;;;;;5134768;27;20030;-56
2022/06/12 06:25:39;;;;;;;7.78;6.20;;;20.40;95.80;;;;;;5110827;27;20127;-53
2022/06/12 06:28:23;;;;;;;6.95;5.47;;;20.50;95.60;;;;;;5101973;28;20042;-55
2022/06/12 06:31:09;;;;;;;;;;;20.60;95.80;;;;;;5110925;27;20111;-53
2022/06/12 06:33:54;;;;;;;7.65;5.30;;;20.60;95.30;;;;;;5104833;28;19919;-53
2022/06/12 06:36:38;;;;;;;;;;;20.60;95.00;;;;;;5087538;28;20037;-57
2022/06/12 06:39:23;;;;;;;10.35;5.80;;;20.80;94.70;;;;;;5101063;28;20300;-54
2022/06/12 06:42:07;;;;;;;;;;;20.80;94.00;;;;;;5104538;28;20510;-53
2022/06/12 06:47:54;;;;;;;9.18;4.72;;;20.90;94.00;;;;;;5096736;28;20039;-55
2022/06/12 06:50:39;;;;;;;;;;;21.00;93.30;;;;;;5110355;28;20081;-54
2022/06/12 06:53:23;;;;;;;6.63;5.07;;;21.00;93.30;;;;;;5111146;28;19914;-52
2022/06/12 06:56:08;;;;;;;7.82;4.60;;;21.10;93.10;;;;;;5113244;27;20038;-51
2022/06/12 06:58:52;;;;;;;;;;;21.20;93.00;;;;;;5098041;28;20034;-54
2022/06/12 07:01:37;;;;;;;8.18;4.53;;;21.40;92.70;;;;;;5112389;28;19934;-57
2022/06/12 07:04:21;;;;;;;7.40;4.35;;;21.50;92.60;;;;;;5081322;28;20087;-54
2022/06/12 07:07:06;;;;;;;6.60;4.60;;;21.80;92.20;;;;;;5108598;28;20078;-52
2022/06/12 07:09:51;;;;;;;8.85;4.80;;;21.90;92.10;;;;;;5123438;27;20081;-56
2022/06/12 07:12:35;;;;;;;6.25;4.30;;;22.00;91.80;;;;;;5113803;27;20042;-52
2022/06/12 07:15:20;;;;;;;6.25;4.10;;;22.00;92.00;;;;;;5112462;28;20096;-54
2022/06/12 07:18:06;;;;;;;7.30;4.32;;;22.10;92.00;;;;;;5098530;28;20043;-55
2022/06/12 07:20:57;;;;;;;6.47;4.22;;;22.40;91.30;;;;;;5096681;28;20061;-56
2022/06/12 07:23:42;;;;;;;7.35;4.53;;;22.30;91.10;;;;;;5111418;28;20110;-54
2022/06/12 07:26:28;;;;;;;;;;;22.20;91.20;;;;;;5111484;28;20061;-57
2022/06/12 07:29:15;;;;;;;7.50;4.32;;;22.20;91.40;;;;;;5110050;28;20450;-56
2022/06/12 07:32:00;;;;;;;7.10;3.65;;;22.10;91.30;;;;;;5096064;28;20160;-55
2022/06/12 07:34:44;;;;;;;5.05;3.70;;;22.10;90.50;;;;;;5109466;28;20047;-56
2022/06/12 07:37:29;;;;;;;6.22;4.07;;;21.90;91.00;;;;;;5109751;28;20034;-55
2022/06/12 07:40:18;;;;;;;4.93;4.13;;;22.10;91.20;;;;;;5095253;28;20026;-54
2022/06/12 07:43:03;;;;;;;7.82;4.15;;;22.10;90.90;;;;;;5112910;27;20054;-53
2022/06/12 07:45:47;;;;;;;4.85;3.60;;;22.30;90.20;;;;;;5116112;27;20042;-53
2022/06/12 07:48:31;;;;;;;3.92;3.20;;;22.30;90.20;;;;;;5109820;27;20572;-51
2022/06/12 07:51:20;;;;;;;6.88;3.92;;;22.30;90.20;;;;;;5112071;28;20078;-54
2022/06/12 07:54:04;;;;;;;4.40;3.38;;;22.40;89.40;;;;;;5109646;28;20115;-54
2022/06/12 07:56:48;;;;;;;;;;;22.50;89.10;;;;;;5110645;28;20035;-56
2022/06/12 07:59:33;;;;;;;6.07;3.70;;;22.60;88.70;;;;;;5107916;28;19978;-55
2022/06/12 08:02:17;;;;;;;5.80;3.95;;;22.70;89.50;;;;;;5109882;27;20062;-56
2022/06/12 08:05:04;;;;;;;5.22;3.83;;;22.80;89.10;;;;;;5098889;27;20030;-53
2022/06/12 08:07:48;;;;;;;6.47;3.80;;;22.90;89.10;;;;;;5116175;27;20092;-55
2022/06/12 08:10:33;;;;;;;6.03;3.88;;;22.90;89.30;;;;;;5132441;27;20042;-53
2022/06/12 08:13:20;;;;;;;5.45;3.60;;;22.90;88.40;;;;;;5111675;28;20146;-55
2022/06/12 08:16:05;;;;;;;5.30;3.67;;;22.80;87.50;;;;;;5109907;28;20049;-53
2022/06/12 08:18:50;;;;;;;6.05;4.05;;;22.60;88.70;;;;;;5115716;28;20081;-53
2022/06/12 08:21:34;;;;;;;;;;;22.60;89.70;;;;;;5114067;27;20035;-55
2022/06/12 08:24:19;;;;;;;9.90;4.80;;;22.70;89.70;;;;;;5092293;28;19994;-54
2022/06/12 08:27:03;;;;;;;5.43;4.20;;;22.90;89.10;;;;;;5108759;28;20043;-52
2022/06/12 08:29:49;;;;;;;6.57;4.30;;;23.00;89.60;;;;;;5111642;28;20042;-52
2022/06/12 08:32:35;;;;;;;5.40;3.80;;;22.90;89.30;;;;;;5113126;28;20047;-53
2022/06/12 08:35:30;;;;;;;8.80;3.80;;;23.10;89.70;;;;;;5111509;28;20058;-53
2022/06/12 08:38:15;;;;;;;7.03;4.80;;;23.30;88.60;;;;;;5112881;28;20540;-54
2022/06/12 08:41:12;;;;;;;7.07;4.22;;;23.30;88.90;;;;;;5113919;28;20089;-56
2022/06/12 08:44:25;;;;;;;8.57;4.50;;;23.40;88.40;;;;;;5128856;28;20025;-57
2022/06/12 08:47:32;;;;;;;10.50;4.60;;;23.30;86.40;;;;;;5116913;28;20123;-54
2022/06/12 08:50:31;;;;;;;8.20;4.50;;;23.50;87.60;;;;;;5092861;28;20035;-54
2022/06/12 08:53:39;;;;;;;9.25;4.03;;;23.30;88.50;;;;;;5107174;28;20103;-56
2022/06/12 08:56:35;;;;;;;8.30;4.20;;;23.50;88.70;;;;;;5110920;28;20709;-54
2022/06/12 08:59:56;;;;;;;5.97;4.03;;;23.60;85.60;;;;;;5098486;27;20366;-54
2022/06/12 09:02:43;;;;;;;7.63;3.92;;;23.50;84.90;;;;;;5087648;28;20429;-50
2022/06/12 09:05:53;;;;;;;8.20;4.15;;;23.60;84.90;;;;;;5114454;28;20050;-56
2022/06/12 09:08:51;;;;;;;7.30;4.20;;;23.80;83.00;;;;;;5095963;28;20517;-53
2022/06/12 09:12:10;;;;;;;8.77;4.28;;;23.70;82.50;;;;;;5096545;28;20038;-50
2022/06/12 09:15:08;;;;;;;9.80;4.40;;;23.70;83.20;;;;;;5107158;28;20729;-51
2022/06/12 09:18:09;;;;;;;6.57;3.95;;;23.80;82.00;;;;;;5107695;28;20708;-57
2022/06/12 09:20:56;;;;;;;9.35;4.70;;;23.70;81.80;;;;;;5096254;28;20032;-54
2022/06/12 09:23:59;;;;;;;12.95;7.63;;;23.90;81.70;;;;;;5115173;27;20042;-56
2022/06/12 09:26:55;;;;;;;7.57;4.28;;;24.20;81.40;;;;;;5151958;22;20095;-74
2022/06/12 09:29:54;;;;;;;11.35;4.63;;;24.00;81.40;;;;;;5092481;28;20045;-74
2022/06/12 09:33:02;;;;;;;8.50;4.15;;;24.30;81.50;;;;;;5101410;28;20208;-74
2022/06/12 09:36:05;;;;;;;8.48;4.25;;;24.50;79.50;;;;;;5088559;28;20540;-73
2022/06/12 09:38:55;;;;;;;9.35;4.43;;;24.10;80.60;;;;;;5104741;28;20043;-75
2022/06/12 09:41:47;;;;;;;7.43;4.07;;;24.00;81.20;;;;;;5105501;28;20018;-74
2022/06/12 09:44:41;;;;;;;9.68;3.97;;;24.40;80.30;;;;;;5107242;28;20035;-74
2022/06/12 09:47:47;;;;;;;9.35;4.38;;;24.70;78.70;;;;;;5089908;28;20470;-75
2022/06/12 09:50:37;;;;;;;10.15;4.60;;;24.60;79.20;;;;;;5101093;28;20382;-76
2022/06/12 09:54:00;;;;;;;11.35;5.65;;;24.40;79.10;;;;;;5085923;28;20031;-74
2022/06/12 09:56:59;;;;;;;9.35;4.68;;;24.40;79.50;;;;;;5085601;28;20039;-74
2022/06/12 10:00:09;;;;;;;9.70;4.75;;;24.40;79.80;;;;;;5100530;28;20577;-74
2022/06/12 10:03:21;;;;;;;7.78;4.18;;;24.70;78.90;;;;;;5075969;28;20042;-74
2022/06/12 10:06:24;;;;;;;9.40;4.13;;;25.00;78.60;;;;;;5103527;28;20042;-76
2022/06/12 10:09:12;;;;;;;9.05;4.35;;;25.20;78.10;;;;;;5114813;28;20470;-74
2022/06/12 10:12:07;;;;;;;6.40;3.90;;;25.30;77.50;;;;;;5098340;28;20145;-75
2022/06/12 10:14:58;;;;;;;7.35;4.07;;;25.20;77.90;;;;;;5107468;28;20065;-75
2022/06/12 10:17:59;;;;;;;6.10;4.40;;;25.30;77.40;;;;;;5110587;28;20415;-73
2022/06/12 10:20:47;;;;;;;6.40;3.72;;;25.20;77.20;;;;;;5096465;28;20057;-74
2022/06/12 10:23:31;;;;;;;8.10;4.25;;;25.30;76.70;;;;;;5119397;28;20486;-75
2022/06/12 10:26:26;;;;;;;8.90;4.25;;;25.40;76.80;;;;;;5088673;28;20038;-75
2022/06/12 10:29:14;;;;;;;5.28;3.65;;;25.40;76.60;;;;;;5100902;28;20038;-74
2022/06/12 10:32:01;;;;;;;9.70;4.00;;;25.70;75.80;;;;;;5084248;28;20101;-74
2022/06/12 10:34:46;;;;;;;7.10;4.30;;;25.80;75.20;;;;;;5095871;28;20104;-74
2022/06/12 10:37:30;;;;;;;5.72;3.55;;;25.70;74.40;;;;;;5085514;28;20113;-77
2022/06/12 10:40:22;;;;;;;7.47;3.95;;;25.60;74.50;;;;;;5104319;28;20034;-75
2022/06/12 10:43:18;;;;;;;7.45;4.22;;;25.50;74.40;;;;;;5100854;28;20055;-75
2022/06/12 10:46:18;;;;;;;9.30;3.97;;;25.40;74.70;;;;;;5102235;28;20478;-76
2022/06/12 10:49:16;;;;;;;8.60;4.40;;;24.90;76.00;;;;;;5103723;28;20053;-75
2022/06/12 10:52:18;;;;;;;6.78;4.15;;;24.70;77.00;;;;;;5083281;28;20066;-76
2022/06/12 10:55:11;;;;;;;6.95;4.05;;;25.00;76.60;;;;;;5105492;28;20030;-76
2022/06/12 10:58:23;;;;;;;6.00;3.83;;;25.20;76.00;;;;;;5104770;28;20422;-76
2022/06/12 11:01:36;;;;;;;9.95;4.20;;;25.20;76.30;;;;;;5099530;28;20097;-75
2022/06/12 11:04:30;;;;;;;6.93;3.97;;;25.40;75.30;;;;;;5084027;28;20030;-75
2022/06/12 11:07:39;;;;;;;6.43;3.80;;;25.50;74.80;;;;;;5117373;28;20035;-76
2022/06/12 11:10:35;;;;;;;6.55;3.90;;;25.90;73.30;;;;;;5101328;28;20400;-76
2022/06/12 11:13:38;;;;;;;5.35;3.97;;;26.10;73.20;;;;;;5093259;28;20039;-75
2022/06/12 11:16:53;;;;;;;7.40;3.80;;;26.30;73.10;;;;;;5102731;28;20062;-74
2022/06/12 11:19:43;;;;;;;;;;;26.40;72.20;;;;;;5103388;28;20152;-75
2022/06/12 11:22:33;;;;;;;6.15;4.15;;;26.10;72.70;;;;;;5099814;28;19915;-76
2022/06/12 11:25:28;;;;;;;9.02;3.92;;;26.10;72.90;;;;;;5105074;28;20118;-75
2022/06/12 11:28:25;;;;;;;5.45;3.80;;;26.10;72.50;;;;;;5107860;28;20115;-74
2022/06/12 11:31:21;;;;;;;7.20;4.25;;;26.00;73.50;;;;;;5109165;28;20053;-74
2022/06/12 11:34:40;;;;;;;7.07;3.40;;;25.60;75.00;;;;;;5089961;28;20149;-74
2022/06/12 11:38:02;;;;;;;9.57;4.07;;;25.50;74.70;;;;;;5049059;28;20060;-73
2022/06/12 11:41:03;;;;;;;8.05;4.30;;;26.10;72.70;;;;;;5098521;28;20089;-74
2022/06/12 11:44:05;;;;;;;9.73;4.32;;;26.50;71.40;;;;;;5099142;28;20054;-74
2022/06/12 11:47:08;;;;;;;6.10;3.88;;;26.70;71.20;;;;;;5091593;28;20035;-74
2022/06/12 11:49:59;;;;;;;6.45;3.50;;;26.50;70.40;;;;;;5102809;28;20100;-74
2022/06/12 11:53:24;;;;;;;4.38;3.40;;;26.70;69.20;;;;;;5116824;28;20141;-74
2022/06/12 11:56:35;;;;;;;6.10;3.22;;;26.70;67.70;;;;;;5117009;28;20024;-74
2022/06/12 11:59:28;;;;;;;6.63;3.10;;;26.80;69.00;;;;;;5116953;28;20038;-75
2022/06/12 12:02:22;;;;;;;9.20;3.70;;;26.80;69.70;;;;;;5102052;28;20034;-75
2022/06/12 12:05:27;;;;;;;7.30;4.50;;;26.90;70.10;;;;;;5119195;28;20126;-74
2022/06/12 12:08:33;;;;;;;6.05;3.33;;;26.90;70.60;;;;;;5117525;28;20046;-73
2022/06/12 12:11:25;;;;;;;9.13;4.13;;;26.80;70.00;;;;;;5117025;28;20097;-74
2022/06/12 12:14:17;;;;;;;6.00;3.17;;;26.80;69.50;;;;;;5118540;28;20084;-73
2022/06/12 12:17:09;;;;;;;5.47;3.60;;;27.10;68.30;;;;;;5118752;28;20035;-74
2022/06/12 12:20:00;;;;;;;6.78;3.50;;;27.30;68.10;;;;;;5102714;28;20096;-75
2022/06/12 12:23:05;;;;;;;7.43;3.53;;;27.30;68.00;;;;;;5102782;28;20034;-74
2022/06/12 12:26:12;;;;;;;6.97;3.25;;;27.10;66.90;;;;;;5116876;28;20050;-74
2022/06/12 12:29:00;;;;;;;5.05;3.40;;;27.10;66.30;;;;;;5093062;28;20546;-74
2022/06/12 12:31:47;;;;;;;6.53;3.67;;;27.30;66.60;;;;;;5097171;28;20039;-75
2022/06/12 12:34:32;;;;;;;5.78;3.50;;;27.50;67.00;;;;;;5100864;28;20101;-75
2022/06/12 12:43:58;;;;;;;6.22;3.60;;;27.20;65.30;;;;;;5101060;28;20023;-74
2022/06/12 12:46:49;;;;;;;5.68;3.20;;;26.90;65.20;;;;;;5102035;28;20030;-74
2022/06/12 12:49:36;;;;;;;4.75;3.25;;;26.80;65.70;;;;;;5088070;28;20077;-74
2022/06/12 12:52:21;;;;;;;4.25;2.83;;;26.90;65.70;;;;;;5086421;28;20071;-74
2022/06/12 12:55:21;;;;;;;5.07;2.83;;;26.70;66.00;;;;;;5086647;28;20078;-74
2022/06/12 12:58:18;;;;;;;5.32;2.90;;;27.10;65.90;;;;;;5086013;28;20101;-73
2022/06/12 13:01:11;;;;;;;4.63;2.80;;;27.30;62.20;;;;;;5072256;28;20105;-75
2022/06/12 13:04:02;;;;;;;4.35;3.38;;;27.30;63.70;;;;;;5101806;28;20023;-75
2022/06/12 13:07:02;;;;;;;4.95;3.13;;;27.30;64.70;;;;;;5101358;28;20137;-74
2022/06/12 13:09:58;;;;;;;5.75;3.03;;;27.40;63.90;;;;;;5100685;28;20043;-74
2022/06/12 13:13:07;;;;;;;5.18;3.10;;;27.50;63.90;;;;;;5085132;28;20035;-74
2022/06/12 13:15:54;;;;;;;5.05;3.15;;;27.60;63.80;;;;;;5085371;28;20145;-75
2022/06/12 13:18:57;;;;;;;5.07;2.97;;;27.70;62.20;;;;;;5101034;28;20035;-74
2022/06/12 13:22:12;;;;;;;4.05;2.75;;;27.60;61.50;;;;;;5101398;28;20115;-74
2022/06/12 13:25:12;;;;;;;4.22;2.95;;;27.70;61.50;;;;;;5100953;28;20030;-74
2022/06/12 13:27:59;;;;;;;6.00;3.20;;;27.80;62.70;;;;;;5088264;28;20093;-74
2022/06/12 13:30:44;;;;;;;5.25;3.45;;;28.30;62.60;;;;;;5090826;28;20248;-74
2022/06/12 13:33:30;;;;;;;4.18;2.92;;;28.20;61.40;;;;;;5105912;28;20096;-76
2022/06/12 13:36:17;;;;;;;3.85;2.90;;;28.30;61.20;;;;;;5106251;28;20034;-74
2022/06/12 13:39:06;;;;;;;5.70;2.70;;;28.10;61.30;;;;;;5120652;28;20112;-74
2022/06/12 13:42:13;;;;;;;5.97;3.33;;;28.60;61.00;;;;;;5091431;28;20042;-74
2022/06/12 13:44:58;;;;;;;3.80;3.10;;;28.90;60.80;;;;;;5102428;28;20365;-74
2022/06/12 13:47:43;;;;;;;4.43;3.00;;;28.50;60.10;;;;;;5085909;28;20059;-76
2022/06/12 13:50:31;;;;;;;;;;;28.50;59.30;;;;;;5084886;28;20057;-74
2022/06/12 13:53:19;;;;;;;4.07;3.13;;;28.60;59.00;;;;;;5100991;28;19911;-75
2022/06/12 13:56:04;;;;;;;4.68;2.90;;;28.30;59.50;;;;;;5084735;28;20051;-75
2022/06/12 13:58:52;;;;;;;4.93;2.92;;;28.60;59.90;;;;;;5100125;28;20035;-74
2022/06/12 14:01:37;;;;;;;7.57;3.10;;;28.90;58.40;;;;;;5083844;28;20273;-75
2022/06/12 14:04:25;;;;;;;;;;;29.10;59.00;;;;;;5085207;28;20039;-75
2022/06/12 14:07:10;;;;;;;5.32;3.05;;;29.30;58.80;;;;;;5099628;28;19937;-75
2022/06/12 14:10:00;;;;;;;4.57;3.08;;;29.00;59.30;;;;;;5085720;28;20121;-73
2022/06/12 14:12:45;;;;;;;6.53;3.42;;;28.60;59.60;;;;;;5083808;28;20150;-74
2022/06/12 14:15:41;;;;;;;4.00;3.20;;;28.60;60.60;;;;;;5099480;28;20073;-74
2022/06/12 14:18:28;;;;;;;4.38;3.25;;;28.90;60.80;;;;;;5099533;28;20066;-73
2022/06/12 14:21:31;;;;;;;5.80;3.28;;;29.10;59.70;;;;;;5085177;28;20089;-73
2022/06/12 14:24:16;;;;;;;7.38;3.17;;;29.10;58.50;;;;;;5085597;28;20031;-73
2022/06/12 14:27:01;;;;;;;4.72;2.80;;;29.10;59.20;;;;;;5109433;28;20065;-72
2022/06/12 14:29:45;;;;;;;5.07;3.50;;;29.00;58.90;;;;;;5098867;28;20038;-73
2022/06/12 14:32:42;;;;;;;4.68;3.35;;;29.20;58.60;;;;;;5118384;28;20030;-74
2022/06/12 14:35:27;;;;;;;6.10;3.05;;;29.80;58.40;;;;;;5118824;28;20046;-73
2022/06/12 14:38:23;;;;;;;7.95;3.65;;;29.60;58.00;;;;;;5092901;28;20046;-73
2022/06/12 14:41:45;;;;;;;4.28;2.70;;;29.70;57.00;;;;;;5098911;28;20092;-73
2022/06/12 14:44:30;;;;;;;6.38;3.45;;;29.20;57.40;;;;;;5097095;28;20044;-73
2022/06/12 14:47:20;;;;;;;5.30;3.10;;;29.10;57.30;;;;;;5100790;28;20130;-74
2022/06/12 14:50:12;;;;;;;4.85;3.00;;;29.20;56.20;;;;;;5068831;28;20039;-73
2022/06/12 14:52:56;;;;;;;5.10;3.10;;;29.70;57.00;;;;;;5102996;28;20066;-73
2022/06/12 14:55:41;;;;;;;5.70;3.40;;;29.60;56.80;;;;;;5120569;28;20682;-72
2022/06/12 14:58:38;;;;;;;4.68;3.05;;;30.00;56.60;;;;;;5100802;28;20076;-73
2022/06/12 15:01:22;;;;;;;6.65;3.17;;;30.60;55.60;;;;;;5117964;28;20043;-73
2022/06/12 15:04:10;;;;;;;6.18;3.80;;;29.90;54.60;;;;;;5102465;28;20069;-73
2022/06/12 15:06:56;;;;;;;11.77;9.43;;;29.50;54.40;;;;;;5102891;28;20169;-73
2022/06/12 15:09:40;;;;;;;7.78;4.45;;;29.30;54.80;;;;;;5086931;28;20050;-74
2022/06/12 15:12:25;;;;;;;11.00;7.93;;;29.10;55.30;;;;;;5117490;28;20038;-73
2022/06/12 15:15:19;;;;;;;;;;;29.30;54.40;;;;;;5109351;28;20050;-73
2022/06/12 15:18:06;;;;;;;;;;;29.40;55.20;;;;;;5098292;28;19941;-75